Aviation Digital Data Service (ADDS)

Output produced by METARs form (1048 UTC 17 June 2019)
found at http://www.aviationweather.gov/metar/data/
 
Forecast for: SBFI (FOZ DO IGUACU AR, BR)
Text: TAF SBFI 170915Z 1712/1812 09005KT CAVOK TX30/1718Z TN20/1809Z
Forecast period: 1200 to 1400 UTC 17 June 2019
Forecast type: FROM: standard forecast or significant change
Winds: from the E (90 degrees) at 6 MPH (5 knots; 2.6 m/s)
Visibility: 6 or more miles 10+ km)
Ceiling: unknown
Clouds: missing
Weather: no significant weather forecast for this period
Text: BECMG 1714/1716 02007KT
Forecast period: 1400 to 2100 UTC 17 June 2019
Forecast type: BECOMING: Conditions expected to become as follows by 1600 UTC 17 June 2019
Winds: from the NNE (20 degrees) at 8 MPH (7 knots; 3.6 m/s)
Visibility: 6 or more miles 10+ km)
Ceiling: unknown
Clouds: missing
Weather: no significant weather forecast for this period
Text: BECMG 1721/1723 12005KT RMK PDW
Forecast period: 2100 UTC 17 June 2019 to 1200 UTC 18 June 2019
Forecast type: BECOMING: Conditions expected to become as follows by 2300 UTC 17 June 2019
Winds: from the ESE (120 degrees) at 6 MPH (5 knots; 2.6 m/s)
Visibility: 6 or more miles 10+ km)
Ceiling: unknown
Clouds: missing
Weather: no significant weather forecast for this period